sensor_id;sensor_type;location;lat;lon;timestamp;pressure;altitude;pressure_sealevel;temperature
20103;BMP180;10210;52.284;9.892;2023-04-24T00:00:25;99095.00;;;17.90
20103;BMP180;10210;52.284;9.892;2023-04-24T00:02:51;99103.00;;;17.80
20103;BMP180;10210;52.284;9.892;2023-04-24T00:05:17;99095.00;;;17.80
20103;BMP180;10210;52.284;9.892;2023-04-24T00:07:44;99089.00;;;17.80
20103;BMP180;10210;52.284;9.892;2023-04-24T00:10:11;99095.00;;;17.70
20103;BMP180;10210;52.284;9.892;2023-04-24T00:12:38;99087.00;;;17.70
20103;BMP180;10210;52.284;9.892;2023-04-24T00:15:05;99092.00;;;17.70
20103;BMP180;10210;52.284;9.892;2023-04-24T00:17:31;99082.00;;;17.60
20103;BMP180;10210;52.284;9.892;2023-04-24T00:19:56;99085.00;;;17.60
20103;BMP180;10210;52.284;9.892;2023-04-24T00:22:28;99083.00;;;17.60
20103;BMP180;10210;52.284;9.892;2023-04-24T00:24:54;99078.00;;;17.50
20103;BMP180;10210;52.284;9.892;2023-04-24T00:27:20;99086.00;;;17.50
20103;BMP180;10210;52.284;9.892;2023-04-24T00:29:45;99079.00;;;17.50
20103;BMP180;10210;52.284;9.892;2023-04-24T00:32:11;99082.00;;;17.50
20103;BMP180;10210;52.284;9.892;2023-04-24T00:34:37;99096.00;;;17.50
20103;BMP180;10210;52.284;9.892;2023-04-24T00:37:02;99092.00;;;17.50
20103;BMP180;10210;52.284;9.892;2023-04-24T00:39:28;99085.00;;;17.40
20103;BMP180;10210;52.284;9.892;2023-04-24T00:41:54;99094.00;;;17.40
20103;BMP180;10210;52.284;9.892;2023-04-24T00:44:20;99094.00;;;17.40
20103;BMP180;10210;52.284;9.892;2023-04-24T00:46:46;99096.00;;;17.40
20103;BMP180;10210;52.284;9.892;2023-04-24T00:49:14;99105.00;;;17.40
20103;BMP180;10210;52.284;9.892;2023-04-24T00:51:39;99106.00;;;17.40
20103;BMP180;10210;52.284;9.892;2023-04-24T00:54:06;99106.00;;;17.40
20103;BMP180;10210;52.284;9.892;2023-04-24T00:56:31;99112.00;;;17.40
20103;BMP180;10210;52.284;9.892;2023-04-24T00:58:58;99109.00;;;17.30
20103;BMP180;10210;52.284;9.892;2023-04-24T01:01:24;99110.00;;;17.40
20103;BMP180;10210;52.284;9.892;2023-04-24T01:03:51;99104.00;;;17.40
20103;BMP180;10210;52.284;9.892;2023-04-24T01:06:18;99103.00;;;17.40
20103;BMP180;10210;52.284;9.892;2023-04-24T01:08:46;99089.00;;;17.30
20103;BMP180;10210;52.284;9.892;2023-04-24T01:11:13;99094.00;;;17.30
20103;BMP180;10210;52.284;9.892;2023-04-24T01:13:39;99080.00;;;17.30
20103;BMP180;10210;52.284;9.892;2023-04-24T01:16:06;99077.00;;;17.30
20103;BMP180;10210;52.284;9.892;2023-04-24T01:18:31;99065.00;;;17.30
20103;BMP180;10210;52.284;9.892;2023-04-24T01:20:59;99077.00;;;17.30
20103;BMP180;10210;52.284;9.892;2023-04-24T01:23:28;99067.00;;;17.30
20103;BMP180;10210;52.284;9.892;2023-04-24T01:25:54;99067.00;;;17.20
20103;BMP180;10210;52.284;9.892;2023-04-24T01:28:20;99070.00;;;17.20
20103;BMP180;10210;52.284;9.892;2023-04-24T01:30:46;99069.00;;;17.20
20103;BMP180;10210;52.284;9.892;2023-04-24T01:33:11;99073.00;;;17.20
20103;BMP180;10210;52.284;9.892;2023-04-24T01:35:38;99068.00;;;17.20
20103;BMP180;10210;52.284;9.892;2023-04-24T01:38:04;99061.00;;;17.20
20103;BMP180;10210;52.284;9.892;2023-04-24T01:40:32;99069.00;;;17.20
20103;BMP180;10210;52.284;9.892;2023-04-24T01:42:58;99065.00;;;17.10
20103;BMP180;10210;52.284;9.892;2023-04-24T01:45:24;99059.00;;;17.10
20103;BMP180;10210;52.284;9.892;2023-04-24T01:47:50;99063.00;;;17.10
20103;BMP180;10210;52.284;9.892;2023-04-24T01:50:17;99060.00;;;17.10
20103;BMP180;10210;52.284;9.892;2023-04-24T01:52:42;99057.00;;;17.10
20103;BMP180;10210;52.284;9.892;2023-04-24T01:55:09;99059.00;;;17.10
20103;BMP180;10210;52.284;9.892;2023-04-24T01:57:35;99069.00;;;17.10
20103;BMP180;10210;52.284;9.892;2023-04-24T02:00:03;99067.00;;;17.00
20103;BMP180;10210;52.284;9.892;2023-04-24T02:02:30;99067.00;;;17.00
20103;BMP180;10210;52.284;9.892;2023-04-24T02:04:56;99062.00;;;17.00
20103;BMP180;10210;52.284;9.892;2023-04-24T02:07:22;99062.00;;;17.00
20103;BMP180;10210;52.284;9.892;2023-04-24T02:09:48;99066.00;;;16.90
20103;BMP180;10210;52.284;9.892;2023-04-24T02:12:15;99057.00;;;16.90
20103;BMP180;10210;52.284;9.892;2023-04-24T02:14:43;99054.00;;;16.90
20103;BMP180;10210;52.284;9.892;2023-04-24T02:17:09;99056.00;;;16.90
20103;BMP180;10210;52.284;9.892;2023-04-24T02:19:38;99056.00;;;16.90
20103;BMP180;10210;52.284;9.892;2023-04-24T02:22:04;99049.00;;;16.90
20103;BMP180;10210;52.284;9.892;2023-04-24T02:24:30;99053.00;;;16.80
20103;BMP180;10210;52.284;9.892;2023-04-24T02:26:56;99040.00;;;16.80
20103;BMP180;10210;52.284;9.892;2023-04-24T02:29:21;99044.00;;;16.80
20103;BMP180;10210;52.284;9.892;2023-04-24T02:31:47;99048.00;;;16.70
20103;BMP180;10210;52.284;9.892;2023-04-24T02:34:13;99053.00;;;16.70
20103;BMP180;10210;52.284;9.892;2023-04-24T02:36:38;99066.00;;;16.80
20103;BMP180;10210;52.284;9.892;2023-04-24T02:39:04;99061.00;;;16.70
20103;BMP180;10210;52.284;9.892;2023-04-24T02:41:30;99050.00;;;16.70
20103;BMP180;10210;52.284;9.892;2023-04-24T02:43:58;99061.00;;;16.70
20103;BMP180;10210;52.284;9.892;2023-04-24T02:46:24;99070.00;;;16.70
20103;BMP180;10210;52.284;9.892;2023-04-24T02:48:50;99062.00;;;16.70
20103;BMP180;10210;52.284;9.892;2023-04-24T02:51:16;99052.00;;;16.60
20103;BMP180;10210;52.284;9.892;2023-04-24T02:53:42;99044.00;;;16.60
20103;BMP180;10210;52.284;9.892;2023-04-24T02:56:07;99041.00;;;16.50
20103;BMP180;10210;52.284;9.892;2023-04-24T02:58:33;99053.00;;;16.50
20103;BMP180;10210;52.284;9.892;2023-04-24T03:00:59;99039.00;;;16.50
20103;BMP180;10210;52.284;9.892;2023-04-24T03:03:26;99041.00;;;16.50
20103;BMP180;10210;52.284;9.892;2023-04-24T03:05:51;99034.00;;;16.40
20103;BMP180;10210;52.284;9.892;2023-04-24T03:08:17;99041.00;;;16.40
20103;BMP180;10210;52.284;9.892;2023-04-24T03:10:43;99043.00;;;16.40
20103;BMP180;10210;52.284;9.892;2023-04-24T03:13:09;99031.00;;;16.30
20103;BMP180;10210;52.284;9.892;2023-04-24T03:15:35;99020.00;;;16.30
20103;BMP180;10210;52.284;9.892;2023-04-24T03:18:00;99031.00;;;16.30
20103;BMP180;10210;52.284;9.892;2023-04-24T03:20:26;99028.00;;;16.30
20103;BMP180;10210;52.284;9.892;2023-04-24T03:22:52;99030.00;;;16.20
20103;BMP180;10210;52.284;9.892;2023-04-24T03:25:18;99025.00;;;16.20
20103;BMP180;10210;52.284;9.892;2023-04-24T03:27:43;99020.00;;;16.20
20103;BMP180;10210;52.284;9.892;2023-04-24T03:30:10;99020.00;;;16.20
20103;BMP180;10210;52.284;9.892;2023-04-24T03:32:36;99025.00;;;16.10
20103;BMP180;10210;52.284;9.892;2023-04-24T03:35:01;99029.00;;;16.10
20103;BMP180;10210;52.284;9.892;2023-04-24T03:37:27;99022.00;;;16.10
20103;BMP180;10210;52.284;9.892;2023-04-24T03:39:53;99033.00;;;16.10
20103;BMP180;10210;52.284;9.892;2023-04-24T03:42:18;99029.00;;;16.00
20103;BMP180;10210;52.284;9.892;2023-04-24T03:44:44;99026.00;;;16.00
20103;BMP180;10210;52.284;9.892;2023-04-24T03:47:10;99040.00;;;15.90
20103;BMP180;10210;52.284;9.892;2023-04-24T03:49:35;99025.00;;;15.90
20103;BMP180;10210;52.284;9.892;2023-04-24T03:52:01;99022.00;;;15.80
20103;BMP180;10210;52.284;9.892;2023-04-24T03:54:27;99019.00;;;15.80
20103;BMP180;10210;52.284;9.892;2023-04-24T03:56:53;99016.00;;;15.80
20103;BMP180;10210;52.284;9.892;2023-04-24T03:59:19;99011.00;;;15.80
20103;BMP180;10210;52.284;9.892;2023-04-24T04:01:44;99019.00;;;15.80
20103;BMP180;10210;52.284;9.892;2023-04-24T04:04:10;99022.00;;;15.80
20103;BMP180;10210;52.284;9.892;2023-04-24T04:06:36;99027.00;;;15.80
20103;BMP180;10210;52.284;9.892;2023-04-24T04:09:02;99026.00;;;15.80
20103;BMP180;10210;52.284;9.892;2023-04-24T04:11:29;99029.00;;;15.70
20103;BMP180;10210;52.284;9.892;2023-04-24T04:13:55;99021.00;;;15.70
20103;BMP180;10210;52.284;9.892;2023-04-24T04:16:22;99018.00;;;15.70
20103;BMP180;10210;52.284;9.892;2023-04-24T04:18:48;99018.00;;;15.70
20103;BMP180;10210;52.284;9.892;2023-04-24T04:21:14;99022.00;;;15.70
20103;BMP180;10210;52.284;9.892;2023-04-24T04:23:39;99020.00;;;15.70
20103;BMP180;10210;52.284;9.892;2023-04-24T04:26:05;99023.00;;;15.70
20103;BMP180;10210;52.284;9.892;2023-04-24T04:28:31;99021.00;;;15.70
20103;BMP180;10210;52.284;9.892;2023-04-24T04:30:58;99017.00;;;15.70
20103;BMP180;10210;52.284;9.892;2023-04-24T04:33:24;99018.00;;;15.70
20103;BMP180;10210;52.284;9.892;2023-04-24T04:35:52;99019.00;;;15.70
20103;BMP180;10210;52.284;9.892;2023-04-24T04:38:21;99022.00;;;15.70
20103;BMP180;10210;52.284;9.892;2023-04-24T04:40:46;99020.00;;;15.70
20103;BMP180;10210;52.284;9.892;2023-04-24T04:43:13;99029.00;;;15.70
20103;BMP180;10210;52.284;9.892;2023-04-24T04:45:40;99027.00;;;15.70
20103;BMP180;10210;52.284;9.892;2023-04-24T04:48:08;99026.00;;;15.70
20103;BMP180;10210;52.284;9.892;2023-04-24T04:50:37;99027.00;;;15.60
20103;BMP180;10210;52.284;9.892;2023-04-24T04:53:03;99028.00;;;15.60
20103;BMP180;10210;52.284;9.892;2023-04-24T04:55:28;99026.00;;;15.50
20103;BMP180;10210;52.284;9.892;2023-04-24T04:57:54;99024.00;;;15.50
20103;BMP180;10210;52.284;9.892;2023-04-24T05:00:21;99025.00;;;15.50
20103;BMP180;10210;52.284;9.892;2023-04-24T05:02:47;99030.00;;;15.40
20103;BMP180;10210;52.284;9.892;2023-04-24T05:05:13;99032.00;;;15.40
20103;BMP180;10210;52.284;9.892;2023-04-24T05:07:41;99035.00;;;15.40
20103;BMP180;10210;52.284;9.892;2023-04-24T05:10:07;99037.00;;;15.40
20103;BMP180;10210;52.284;9.892;2023-04-24T05:12:33;99036.00;;;15.40
20103;BMP180;10210;52.284;9.892;2023-04-24T05:14:59;99029.00;;;15.40
20103;BMP180;10210;52.284;9.892;2023-04-24T05:17:24;99037.00;;;15.40
20103;BMP180;10210;52.284;9.892;2023-04-24T05:19:51;99029.00;;;15.50
20103;BMP180;10210;52.284;9.892;2023-04-24T05:22:16;99038.00;;;15.40
20103;BMP180;10210;52.284;9.892;2023-04-24T05:24:44;99038.00;;;15.50
20103;BMP180;10210;52.284;9.892;2023-04-24T05:27:10;99039.00;;;15.50
20103;BMP180;10210;52.284;9.892;2023-04-24T05:29:36;99047.00;;;15.50
20103;BMP180;10210;52.284;9.892;2023-04-24T05:32:01;99052.00;;;15.60
20103;BMP180;10210;52.284;9.892;2023-04-24T05:34:28;99055.00;;;15.60
20103;BMP180;10210;52.284;9.892;2023-04-24T05:36:58;99056.00;;;15.60
20103;BMP180;10210;52.284;9.892;2023-04-24T05:39:23;99063.00;;;15.70
20103;BMP180;10210;52.284;9.892;2023-04-24T05:41:50;99054.00;;;15.70
20103;BMP180;10210;52.284;9.892;2023-04-24T05:44:16;99057.00;;;15.70
20103;BMP180;10210;52.284;9.892;2023-04-24T05:46:42;99055.00;;;15.80
20103;BMP180;10210;52.284;9.892;2023-04-24T05:49:08;99052.00;;;15.80
20103;BMP180;10210;52.284;9.892;2023-04-24T05:51:33;99058.00;;;15.90
20103;BMP180;10210;52.284;9.892;2023-04-24T05:53:59;99056.00;;;15.90
20103;BMP180;10210;52.284;9.892;2023-04-24T05:56:24;99065.00;;;16.00
20103;BMP180;10210;52.284;9.892;2023-04-24T05:58:50;99060.00;;;16.00
20103;BMP180;10210;52.284;9.892;2023-04-24T06:01:16;99059.00;;;16.10
20103;BMP180;10210;52.284;9.892;2023-04-24T06:03:42;99064.00;;;16.10
20103;BMP180;10210;52.284;9.892;2023-04-24T06:06:08;99065.00;;;16.20
20103;BMP180;10210;52.284;9.892;2023-04-24T06:08:35;99067.00;;;16.30
20103;BMP180;10210;52.284;9.892;2023-04-24T06:11:01;99064.00;;;16.30
20103;BMP180;10210;52.284;9.892;2023-04-24T06:13:26;99059.00;;;16.30
20103;BMP180;10210;52.284;9.892;2023-04-24T06:15:53;99068.00;;;16.40
20103;BMP180;10210;52.284;9.892;2023-04-24T06:18:22;99082.00;;;16.40
20103;BMP180;10210;52.284;9.892;2023-04-24T06:20:50;99083.00;;;16.30
20103;BMP180;10210;52.284;9.892;2023-04-24T06:23:17;99081.00;;;16.30
20103;BMP180;10210;52.284;9.892;2023-04-24T06:25:42;99092.00;;;16.30
20103;BMP180;10210;52.284;9.892;2023-04-24T06:28:10;99091.00;;;16.20
20103;BMP180;10210;52.284;9.892;2023-04-24T06:30:36;99094.00;;;16.20
20103;BMP180;10210;52.284;9.892;2023-04-24T06:33:02;99086.00;;;16.20
20103;BMP180;10210;52.284;9.892;2023-04-24T06:35:28;99086.00;;;16.20
20103;BMP180;10210;52.284;9.892;2023-04-24T06:37:54;99090.00;;;16.10
20103;BMP180;10210;52.284;9.892;2023-04-24T06:40:22;99094.00;;;16.20
20103;BMP180;10210;52.284;9.892;2023-04-24T06:42:47;99085.00;;;16.10
20103;BMP180;10210;52.284;9.892;2023-04-24T06:45:13;99092.00;;;16.20
20103;BMP180;10210;52.284;9.892;2023-04-24T06:47:39;99090.00;;;16.20
20103;BMP180;10210;52.284;9.892;2023-04-24T06:50:06;99098.00;;;16.20
20103;BMP180;10210;52.284;9.892;2023-04-24T06:52:32;99096.00;;;16.20
20103;BMP180;10210;52.284;9.892;2023-04-24T06:55:05;99103.00;;;16.20
20103;BMP180;10210;52.284;9.892;2023-04-24T06:57:31;99101.00;;;16.20
20103;BMP180;10210;52.284;9.892;2023-04-24T06:59:56;99108.00;;;16.20
20103;BMP180;10210;52.284;9.892;2023-04-24T07:02:23;99111.00;;;16.20
20103;BMP180;10210;52.284;9.892;2023-04-24T07:04:48;99101.00;;;16.20
20103;BMP180;10210;52.284;9.892;2023-04-24T07:07:14;99105.00;;;16.60
20103;BMP180;10210;52.284;9.892;2023-04-24T07:09:41;99103.00;;;16.40
20103;BMP180;10210;52.284;9.892;2023-04-24T07:12:08;99104.00;;;16.30
20103;BMP180;10210;52.284;9.892;2023-04-24T07:14:36;99113.00;;;16.30
20103;BMP180;10210;52.284;9.892;2023-04-24T07:17:05;99109.00;;;16.20
20103;BMP180;10210;52.284;9.892;2023-04-24T07:19:33;99108.00;;;16.20
20103;BMP180;10210;52.284;9.892;2023-04-24T07:21:58;99107.00;;;16.10
20103;BMP180;10210;52.284;9.892;2023-04-24T07:24:25;99119.00;;;16.10
20103;BMP180;10210;52.284;9.892;2023-04-24T07:26:52;99108.00;;;16.10
20103;BMP180;10210;52.284;9.892;2023-04-24T07:29:19;99118.00;;;16.10
20103;BMP180;10210;52.284;9.892;2023-04-24T07:31:45;99112.00;;;16.20
20103;BMP180;10210;52.284;9.892;2023-04-24T07:34:11;99123.00;;;16.30
20103;BMP180;10210;52.284;9.892;2023-04-24T07:36:36;99115.00;;;16.70
20103;BMP180;10210;52.284;9.892;2023-04-24T07:39:04;99124.00;;;17.20
20103;BMP180;10210;52.284;9.892;2023-04-24T07:41:30;99132.00;;;17.70
20103;BMP180;10210;52.284;9.892;2023-04-24T07:43:56;99132.00;;;18.20
20103;BMP180;10210;52.284;9.892;2023-04-24T07:46:21;99132.00;;;18.70
20103;BMP180;10210;52.284;9.892;2023-04-24T07:48:49;99133.00;;;19.00
20103;BMP180;10210;52.284;9.892;2023-04-24T07:51:15;99122.00;;;19.30
20103;BMP180;10210;52.284;9.892;2023-04-24T07:53:42;99130.00;;;19.30
20103;BMP180;10210;52.284;9.892;2023-04-24T07:56:07;99147.00;;;19.30
20103;BMP180;10210;52.284;9.892;2023-04-24T07:58:34;99133.00;;;19.60
20103;BMP180;10210;52.284;9.892;2023-04-24T08:01:01;99139.00;;;20.10
20103;BMP180;10210;52.284;9.892;2023-04-24T08:03:27;99132.00;;;20.40
20103;BMP180;10210;52.284;9.892;2023-04-24T08:05:53;99138.00;;;20.80
20103;BMP180;10210;52.284;9.892;2023-04-24T08:08:22;99145.00;;;21.20
20103;BMP180;10210;52.284;9.892;2023-04-24T08:10:48;99141.00;;;21.50
20103;BMP180;10210;52.284;9.892;2023-04-24T08:13:14;99144.00;;;21.70
20103;BMP180;10210;52.284;9.892;2023-04-24T08:15:40;99147.00;;;21.80
20103;BMP180;10210;52.284;9.892;2023-04-24T08:18:05;99154.00;;;21.70
20103;BMP180;10210;52.284;9.892;2023-04-24T08:20:31;99151.00;;;21.70
20103;BMP180;10210;52.284;9.892;2023-04-24T08:22:57;99181.00;;;21.70
20103;BMP180;10210;52.284;9.892;2023-04-24T08:25:23;99151.00;;;21.50
20103;BMP180;10210;52.284;9.892;2023-04-24T08:27:50;99169.00;;;21.40
20103;BMP180;10210;52.284;9.892;2023-04-24T08:30:17;99168.00;;;21.40
20103;BMP180;10210;52.284;9.892;2023-04-24T08:32:42;99187.00;;;21.30
20103;BMP180;10210;52.284;9.892;2023-04-24T08:35:08;99162.00;;;21.20
20103;BMP180;10210;52.284;9.892;2023-04-24T08:37:35;99167.00;;;21.20
20103;BMP180;10210;52.284;9.892;2023-04-24T08:40:06;99159.00;;;21.30
20103;BMP180;10210;52.284;9.892;2023-04-24T08:42:37;99167.00;;;21.40
20103;BMP180;10210;52.284;9.892;2023-04-24T08:45:04;99169.00;;;21.50
20103;BMP180;10210;52.284;9.892;2023-04-24T08:47:30;99169.00;;;21.60
20103;BMP180;10210;52.284;9.892;2023-04-24T08:49:58;99180.00;;;21.50
20103;BMP180;10210;52.284;9.892;2023-04-24T08:52:25;99169.00;;;21.50
20103;BMP180;10210;52.284;9.892;2023-04-24T08:54:53;99159.00;;;21.60
20103;BMP180;10210;52.284;9.892;2023-04-24T08:57:20;99173.00;;;21.60
20103;BMP180;10210;52.284;9.892;2023-04-24T08:59:47;99176.00;;;21.70
20103;BMP180;10210;52.284;9.892;2023-04-24T09:02:14;99180.00;;;21.60
20103;BMP180;10210;52.284;9.892;2023-04-24T09:04:41;99185.00;;;21.40
20103;BMP180;10210;52.284;9.892;2023-04-24T09:07:10;99186.00;;;21.20
20103;BMP180;10210;52.284;9.892;2023-04-24T09:09:38;99194.00;;;20.90
20103;BMP180;10210;52.284;9.892;2023-04-24T09:12:04;99170.00;;;20.50
20103;BMP180;10210;52.284;9.892;2023-04-24T09:14:31;99196.00;;;20.20
20103;BMP180;10210;52.284;9.892;2023-04-24T09:16:57;99200.00;;;19.90
20103;BMP180;10210;52.284;9.892;2023-04-24T09:19:23;99196.00;;;19.60
20103;BMP180;10210;52.284;9.892;2023-04-24T09:21:49;99193.00;;;19.50
20103;BMP180;10210;52.284;9.892;2023-04-24T09:24:20;99192.00;;;19.60
20103;BMP180;10210;52.284;9.892;2023-04-24T09:26:49;99183.00;;;19.70
20103;BMP180;10210;52.284;9.892;2023-04-24T09:29:21;99194.00;;;19.70
20103;BMP180;10210;52.284;9.892;2023-04-24T09:31:46;99200.00;;;19.70
20103;BMP180;10210;52.284;9.892;2023-04-24T09:34:13;99198.00;;;19.60
20103;BMP180;10210;52.284;9.892;2023-04-24T09:36:41;99205.00;;;19.50
20103;BMP180;10210;52.284;9.892;2023-04-24T09:39:16;99215.00;;;19.40
20103;BMP180;10210;52.284;9.892;2023-04-24T09:41:56;99214.00;;;19.30
20103;BMP180;10210;52.284;9.892;2023-04-24T09:44:27;99205.00;;;19.20
20103;BMP180;10210;52.284;9.892;2023-04-24T09:46:56;99198.00;;;19.30
20103;BMP180;10210;52.284;9.892;2023-04-24T09:49:25;99197.00;;;19.40
20103;BMP180;10210;52.284;9.892;2023-04-24T09:51:53;99193.00;;;19.60
20103;BMP180;10210;52.284;9.892;2023-04-24T09:54:27;99204.00;;;19.70
20103;BMP180;10210;52.284;9.892;2023-04-24T09:56:54;99210.00;;;19.80
20103;BMP180;10210;52.284;9.892;2023-04-24T09:59:22;99202.00;;;19.70
20103;BMP180;10210;52.284;9.892;2023-04-24T10:01:48;99210.00;;;19.60
20103;BMP180;10210;52.284;9.892;2023-04-24T10:04:31;99209.00;;;19.40
20103;BMP180;10210;52.284;9.892;2023-04-24T10:06:57;99209.00;;;19.40
20103;BMP180;10210;52.284;9.892;2023-04-24T10:09:26;99204.00;;;19.30
20103;BMP180;10210;52.284;9.892;2023-04-24T10:11:54;99210.00;;;19.20
20103;BMP180;10210;52.284;9.892;2023-04-24T10:14:23;99214.00;;;19.10
20103;BMP180;10210;52.284;9.892;2023-04-24T10:16:53;99207.00;;;19.00
20103;BMP180;10210;52.284;9.892;2023-04-24T10:19:19;99202.00;;;18.90
20103;BMP180;10210;52.284;9.892;2023-04-24T10:21:46;99207.00;;;18.80
20103;BMP180;10210;52.284;9.892;2023-04-24T10:24:18;99204.00;;;18.70
20103;BMP180;10210;52.284;9.892;2023-04-24T10:26:47;99216.00;;;18.70
20103;BMP180;10210;52.284;9.892;2023-04-24T10:29:16;99208.00;;;18.60
20103;BMP180;10210;52.284;9.892;2023-04-24T10:31:42;99210.00;;;18.50
20103;BMP180;10210;52.284;9.892;2023-04-24T10:34:11;99208.00;;;18.50
20103;BMP180;10210;52.284;9.892;2023-04-24T10:36:44;99211.00;;;18.40
20103;BMP180;10210;52.284;9.892;2023-04-24T10:39:14;99217.00;;;18.40
20103;BMP180;10210;52.284;9.892;2023-04-24T10:41:41;99216.00;;;18.40
20103;BMP180;10210;52.284;9.892;2023-04-24T10:44:12;99213.00;;;18.40
20103;BMP180;10210;52.284;9.892;2023-04-24T10:46:44;99203.00;;;18.40
20103;BMP180;10210;52.284;9.892;2023-04-24T10:49:10;99207.00;;;18.30
20103;BMP180;10210;52.284;9.892;2023-04-24T10:51:53;99199.00;;;18.30
20103;BMP180;10210;52.284;9.892;2023-04-24T11:00:15;99200.00;;;18.30
20103;BMP180;10210;52.284;9.892;2023-04-24T11:02:41;99199.00;;;18.30
20103;BMP180;10210;52.284;9.892;2023-04-24T11:05:16;99204.00;;;18.30
20103;BMP180;10210;52.284;9.892;2023-04-24T11:08:14;99207.00;;;18.20
20103;BMP180;10210;52.284;9.892;2023-04-24T11:11:11;99208.00;;;18.10
20103;BMP180;10210;52.284;9.892;2023-04-24T11:16:29;99238.00;;;18.10
20103;BMP180;10210;52.284;9.892;2023-04-24T11:22:01;99223.00;;;17.80
20103;BMP180;10210;52.284;9.892;2023-04-24T11:30:00;99205.00;;;17.90
20103;BMP180;10210;52.284;9.892;2023-04-24T11:32:51;99203.00;;;18.00
20103;BMP180;10210;52.284;9.892;2023-04-24T11:35:19;99200.00;;;18.10
20103;BMP180;10210;52.284;9.892;2023-04-24T11:37:50;99202.00;;;18.20
20103;BMP180;10210;52.284;9.892;2023-04-24T11:40:18;99200.00;;;18.20
20103;BMP180;10210;52.284;9.892;2023-04-24T11:42:47;99192.00;;;18.20
20103;BMP180;10210;52.284;9.892;2023-04-24T11:45:25;99192.00;;;18.30
20103;BMP180;10210;52.284;9.892;2023-04-24T11:47:52;99225.00;;;18.30
20103;BMP180;10210;52.284;9.892;2023-04-24T11:50:22;99228.00;;;18.20
20103;BMP180;10210;52.284;9.892;2023-04-24T11:52:49;99226.00;;;18.20
20103;BMP180;10210;52.284;9.892;2023-04-24T11:57:46;99237.00;;;18.20
20103;BMP180;10210;52.284;9.892;2023-04-24T12:00:19;99236.00;;;18.20
20103;BMP180;10210;52.284;9.892;2023-04-24T12:02:46;99229.00;;;18.20
20103;BMP180;10210;52.284;9.892;2023-04-24T12:05:28;99224.00;;;18.20
20103;BMP180;10210;52.284;9.892;2023-04-24T12:07:56;99233.00;;;18.30
20103;BMP180;10210;52.284;9.892;2023-04-24T12:10:26;99225.00;;;18.30
20103;BMP180;10210;52.284;9.892;2023-04-24T12:12:55;99233.00;;;18.40
20103;BMP180;10210;52.284;9.892;2023-04-24T12:15:21;99236.00;;;18.40
20103;BMP180;10210;52.284;9.892;2023-04-24T12:17:50;99229.00;;;18.40
20103;BMP180;10210;52.284;9.892;2023-04-24T12:20:17;99227.00;;;18.30
20103;BMP180;10210;52.284;9.892;2023-04-24T12:22:52;99228.00;;;18.30
20103;BMP180;10210;52.284;9.892;2023-04-24T12:25:22;99246.00;;;18.30
20103;BMP180;10210;52.284;9.892;2023-04-24T12:27:55;99256.00;;;18.20
20103;BMP180;10210;52.284;9.892;2023-04-24T12:30:26;99271.00;;;18.20
20103;BMP180;10210;52.284;9.892;2023-04-24T12:32:53;99271.00;;;18.10
20103;BMP180;10210;52.284;9.892;2023-04-24T12:35:23;99273.00;;;18.00
20103;BMP180;10210;52.284;9.892;2023-04-24T12:37:49;99273.00;;;17.90
20103;BMP180;10210;52.284;9.892;2023-04-24T12:40:17;99267.00;;;17.90
20103;BMP180;10210;52.284;9.892;2023-04-24T12:42:48;99276.00;;;17.80
20103;BMP180;10210;52.284;9.892;2023-04-24T12:45:15;99266.00;;;17.80
20103;BMP180;10210;52.284;9.892;2023-04-24T12:47:43;99262.00;;;17.70
20103;BMP180;10210;52.284;9.892;2023-04-24T12:50:14;99266.00;;;17.70
20103;BMP180;10210;52.284;9.892;2023-04-24T12:52:41;99274.00;;;17.70
20103;BMP180;10210;52.284;9.892;2023-04-24T12:55:07;99272.00;;;17.70
20103;BMP180;10210;52.284;9.892;2023-04-24T12:57:36;99284.00;;;17.70
20103;BMP180;10210;52.284;9.892;2023-04-24T13:00:04;99286.00;;;17.70
20103;BMP180;10210;52.284;9.892;2023-04-24T13:02:30;99299.00;;;17.80
20103;BMP180;10210;52.284;9.892;2023-04-24T13:04:57;99282.00;;;17.80
20103;BMP180;10210;52.284;9.892;2023-04-24T13:07:24;99292.00;;;17.90
20103;BMP180;10210;52.284;9.892;2023-04-24T13:09:51;99294.00;;;17.90
20103;BMP180;10210;52.284;9.892;2023-04-24T13:12:17;99288.00;;;17.90
20103;BMP180;10210;52.284;9.892;2023-04-24T13:14:43;99307.00;;;17.90
20103;BMP180;10210;52.284;9.892;2023-04-24T13:17:09;99299.00;;;17.90
20103;BMP180;10210;52.284;9.892;2023-04-24T13:19:37;99311.00;;;17.90
20103;BMP180;10210;52.284;9.892;2023-04-24T13:22:04;99322.00;;;17.80
20103;BMP180;10210;52.284;9.892;2023-04-24T13:24:30;99326.00;;;17.80
20103;BMP180;10210;52.284;9.892;2023-04-24T13:26:56;99334.00;;;17.70
20103;BMP180;10210;52.284;9.892;2023-04-24T13:29:23;99331.00;;;17.60
20103;BMP180;10210;52.284;9.892;2023-04-24T13:31:51;99325.00;;;17.50
20103;BMP180;10210;52.284;9.892;2023-04-24T13:34:17;99326.00;;;17.40
20103;BMP180;10210;52.284;9.892;2023-04-24T13:36:43;99339.00;;;17.40
20103;BMP180;10210;52.284;9.892;2023-04-24T13:39:10;99335.00;;;17.40
20103;BMP180;10210;52.284;9.892;2023-04-24T13:41:36;99336.00;;;17.30
20103;BMP180;10210;52.284;9.892;2023-04-24T13:44:03;99334.00;;;17.30
20103;BMP180;10210;52.284;9.892;2023-04-24T13:46:30;99338.00;;;17.20
20103;BMP180;10210;52.284;9.892;2023-04-24T13:48:57;99352.00;;;17.30
20103;BMP180;10210;52.284;9.892;2023-04-24T13:51:25;99346.00;;;17.30
20103;BMP180;10210;52.284;9.892;2023-04-24T13:53:55;99341.00;;;17.30
20103;BMP180;10210;52.284;9.892;2023-04-24T13:56:21;99356.00;;;17.30
20103;BMP180;10210;52.284;9.892;2023-04-24T13:58:48;99371.00;;;17.20
20103;BMP180;10210;52.284;9.892;2023-04-24T14:01:14;99376.00;;;17.10
20103;BMP180;10210;52.284;9.892;2023-04-24T14:03:41;99384.00;;;16.90
20103;BMP180;10210;52.284;9.892;2023-04-24T14:06:08;99387.00;;;16.80
20103;BMP180;10210;52.284;9.892;2023-04-24T14:08:34;99394.00;;;16.60
20103;BMP180;10210;52.284;9.892;2023-04-24T14:11:00;99403.00;;;16.50
20103;BMP180;10210;52.284;9.892;2023-04-24T14:13:25;99409.00;;;16.50
20103;BMP180;10210;52.284;9.892;2023-04-24T14:15:51;99415.00;;;16.40
20103;BMP180;10210;52.284;9.892;2023-04-24T14:18:18;99406.00;;;16.20
20103;BMP180;10210;52.284;9.892;2023-04-24T14:20:44;99416.00;;;16.20
20103;BMP180;10210;52.284;9.892;2023-04-24T14:23:10;99418.00;;;16.10
20103;BMP180;10210;52.284;9.892;2023-04-24T14:25:36;99413.00;;;16.10
20103;BMP180;10210;52.284;9.892;2023-04-24T14:28:02;99416.00;;;16.10